sensor_id;sensor_type;location;lat;lon;timestamp;temperature;humidity
2757;DHT22;1386;50.862;6.494;2023-07-20T00:00:56;18.80;99.90
2757;DHT22;1386;50.862;6.494;2023-07-20T00:03:23;18.80;99.90
2757;DHT22;1386;50.862;6.494;2023-07-20T00:05:51;18.90;99.90
2757;DHT22;1386;50.862;6.494;2023-07-20T00:08:18;18.90;99.90
2757;DHT22;1386;50.862;6.494;2023-07-20T00:10:46;18.80;99.90
2757;DHT22;1386;50.862;6.494;2023-07-20T00:13:15;18.80;99.90
2757;DHT22;1386;50.862;6.494;2023-07-20T00:15:57;18.80;99.90
2757;DHT22;1386;50.862;6.494;2023-07-20T00:18:27;18.80;99.90
2757;DHT22;1386;50.862;6.494;2023-07-20T00:20:57;18.80;99.90
2757;DHT22;1386;50.862;6.494;2023-07-20T00:23:25;18.80;99.90
2757;DHT22;1386;50.862;6.494;2023-07-20T00:25:53;18.80;99.90
2757;DHT22;1386;50.862;6.494;2023-07-20T00:28:21;18.80;99.90
2757;DHT22;1386;50.862;6.494;2023-07-20T00:30:47;18.70;99.90
2757;DHT22;1386;50.862;6.494;2023-07-20T00:33:16;18.60;99.90
2757;DHT22;1386;50.862;6.494;2023-07-20T00:35:52;18.60;99.90
2757;DHT22;1386;50.862;6.494;2023-07-20T00:38:36;18.60;99.90
2757;DHT22;1386;50.862;6.494;2023-07-20T00:41:10;18.60;99.90
2757;DHT22;1386;50.862;6.494;2023-07-20T00:43:42;18.50;99.90
2757;DHT22;1386;50.862;6.494;2023-07-20T00:46:10;18.50;99.90
2757;DHT22;1386;50.862;6.494;2023-07-20T00:48:37;18.50;99.90
2757;DHT22;1386;50.862;6.494;2023-07-20T00:51:05;18.40;99.90
2757;DHT22;1386;50.862;6.494;2023-07-20T00:53:37;18.40;99.90
2757;DHT22;1386;50.862;6.494;2023-07-20T00:56:06;18.40;99.90
2757;DHT22;1386;50.862;6.494;2023-07-20T00:58:37;18.30;99.90
2757;DHT22;1386;50.862;6.494;2023-07-20T01:01:04;18.30;99.90
2757;DHT22;1386;50.862;6.494;2023-07-20T01:03:31;18.30;99.90
2757;DHT22;1386;50.862;6.494;2023-07-20T01:06:04;18.30;99.90
2757;DHT22;1386;50.862;6.494;2023-07-20T01:08:39;18.20;99.90
2757;DHT22;1386;50.862;6.494;2023-07-20T01:11:15;18.20;99.90
2757;DHT22;1386;50.862;6.494;2023-07-20T01:13:43;18.10;99.90
2757;DHT22;1386;50.862;6.494;2023-07-20T01:16:10;18.10;99.90
2757;DHT22;1386;50.862;6.494;2023-07-20T01:18:37;18.10;99.90
2757;DHT22;1386;50.862;6.494;2023-07-20T01:21:21;18.10;99.90
2757;DHT22;1386;50.862;6.494;2023-07-20T01:24:11;18.00;99.90
2757;DHT22;1386;50.862;6.494;2023-07-20T01:30:09;18.00;99.90
2757;DHT22;1386;50.862;6.494;2023-07-20T01:32:41;18.00;99.90
2757;DHT22;1386;50.862;6.494;2023-07-20T01:35:13;17.90;99.90
2757;DHT22;1386;50.862;6.494;2023-07-20T01:37:47;17.90;99.90
2757;DHT22;1386;50.862;6.494;2023-07-20T01:40:19;17.90;99.90
2757;DHT22;1386;50.862;6.494;2023-07-20T01:43:00;17.80;99.90
2757;DHT22;1386;50.862;6.494;2023-07-20T01:45:26;17.80;99.90
2757;DHT22;1386;50.862;6.494;2023-07-20T01:47:58;17.80;99.90
2757;DHT22;1386;50.862;6.494;2023-07-20T01:50:24;17.80;99.90
2757;DHT22;1386;50.862;6.494;2023-07-20T01:52:51;17.80;99.90
2757;DHT22;1386;50.862;6.494;2023-07-20T01:55:18;17.80;99.90
2757;DHT22;1386;50.862;6.494;2023-07-20T01:57:45;17.70;99.90
2757;DHT22;1386;50.862;6.494;2023-07-20T02:00:12;17.70;99.90
2757;DHT22;1386;50.862;6.494;2023-07-20T02:02:39;17.70;99.90
2757;DHT22;1386;50.862;6.494;2023-07-20T02:05:10;17.60;99.90
2757;DHT22;1386;50.862;6.494;2023-07-20T02:07:40;17.60;99.90
2757;DHT22;1386;50.862;6.494;2023-07-20T02:10:07;17.60;99.90
2757;DHT22;1386;50.862;6.494;2023-07-20T02:12:34;17.60;99.90
2757;DHT22;1386;50.862;6.494;2023-07-20T02:15:02;17.50;99.90
2757;DHT22;1386;50.862;6.494;2023-07-20T02:17:29;17.60;99.90
2757;DHT22;1386;50.862;6.494;2023-07-20T02:19:56;17.50;99.90
2757;DHT22;1386;50.862;6.494;2023-07-20T02:22:25;17.50;99.90
2757;DHT22;1386;50.862;6.494;2023-07-20T02:24:52;17.50;99.90
2757;DHT22;1386;50.862;6.494;2023-07-20T02:27:19;17.50;99.90
2757;DHT22;1386;50.862;6.494;2023-07-20T02:29:50;17.40;99.90
2757;DHT22;1386;50.862;6.494;2023-07-20T02:32:18;17.40;99.90
2757;DHT22;1386;50.862;6.494;2023-07-20T02:34:46;17.30;99.90
2757;DHT22;1386;50.862;6.494;2023-07-20T02:37:13;17.30;99.90
2757;DHT22;1386;50.862;6.494;2023-07-20T02:39:41;17.30;99.90
2757;DHT22;1386;50.862;6.494;2023-07-20T02:42:11;17.30;99.90
2757;DHT22;1386;50.862;6.494;2023-07-20T02:44:38;17.30;99.90
2757;DHT22;1386;50.862;6.494;2023-07-20T02:47:06;17.30;99.90
2757;DHT22;1386;50.862;6.494;2023-07-20T02:49:35;17.20;99.90
2757;DHT22;1386;50.862;6.494;2023-07-20T02:52:01;17.20;99.90
2757;DHT22;1386;50.862;6.494;2023-07-20T02:54:29;17.30;99.90
2757;DHT22;1386;50.862;6.494;2023-07-20T02:56:57;17.20;99.90
2757;DHT22;1386;50.862;6.494;2023-07-20T02:59:28;17.30;99.90
2757;DHT22;1386;50.862;6.494;2023-07-20T03:01:55;17.30;99.90
2757;DHT22;1386;50.862;6.494;2023-07-20T03:04:23;17.30;99.90
2757;DHT22;1386;50.862;6.494;2023-07-20T03:06:52;17.30;99.90
2757;DHT22;1386;50.862;6.494;2023-07-20T03:09:19;17.30;99.90
2757;DHT22;1386;50.862;6.494;2023-07-20T03:11:45;17.30;99.90
2757;DHT22;1386;50.862;6.494;2023-07-20T03:14:13;17.30;99.90
2757;DHT22;1386;50.862;6.494;2023-07-20T03:16:40;17.30;99.90
2757;DHT22;1386;50.862;6.494;2023-07-20T03:19:07;17.30;99.90
2757;DHT22;1386;50.862;6.494;2023-07-20T03:21:39;17.30;99.90
2757;DHT22;1386;50.862;6.494;2023-07-20T03:24:06;17.20;99.90
2757;DHT22;1386;50.862;6.494;2023-07-20T03:26:34;17.30;99.90
2757;DHT22;1386;50.862;6.494;2023-07-20T03:29:03;17.20;99.90
2757;DHT22;1386;50.862;6.494;2023-07-20T03:31:35;17.20;99.90
2757;DHT22;1386;50.862;6.494;2023-07-20T03:34:02;17.20;99.90
2757;DHT22;1386;50.862;6.494;2023-07-20T03:36:29;17.20;99.90
2757;DHT22;1386;50.862;6.494;2023-07-20T03:38:57;17.20;99.90
2757;DHT22;1386;50.862;6.494;2023-07-20T03:41:23;17.10;99.90
2757;DHT22;1386;50.862;6.494;2023-07-20T03:43:50;17.10;99.90
2757;DHT22;1386;50.862;6.494;2023-07-20T03:46:19;17.00;99.90
2757;DHT22;1386;50.862;6.494;2023-07-20T03:48:50;17.10;99.90
2757;DHT22;1386;50.862;6.494;2023-07-20T03:51:17;17.10;99.90
2757;DHT22;1386;50.862;6.494;2023-07-20T03:53:46;17.00;99.90
2757;DHT22;1386;50.862;6.494;2023-07-20T03:56:13;17.00;99.90
2757;DHT22;1386;50.862;6.494;2023-07-20T03:58:39;17.10;99.90
2757;DHT22;1386;50.862;6.494;2023-07-20T04:01:06;17.00;99.90
2757;DHT22;1386;50.862;6.494;2023-07-20T04:03:33;16.90;99.90
2757;DHT22;1386;50.862;6.494;2023-07-20T04:06:05;16.90;99.90
2757;DHT22;1386;50.862;6.494;2023-07-20T04:08:35;16.90;99.90
2757;DHT22;1386;50.862;6.494;2023-07-20T04:11:02;16.90;99.90
2757;DHT22;1386;50.862;6.494;2023-07-20T04:13:30;16.90;99.90
2757;DHT22;1386;50.862;6.494;2023-07-20T04:15:58;16.90;99.90
2757;DHT22;1386;50.862;6.494;2023-07-20T04:18:30;16.90;99.90
2757;DHT22;1386;50.862;6.494;2023-07-20T04:20:57;16.90;99.90
2757;DHT22;1386;50.862;6.494;2023-07-20T04:23:25;16.90;99.90
2757;DHT22;1386;50.862;6.494;2023-07-20T04:25:55;17.00;99.90
2757;DHT22;1386;50.862;6.494;2023-07-20T04:28:23;16.90;99.90
2757;DHT22;1386;50.862;6.494;2023-07-20T04:30:50;16.90;99.90
2757;DHT22;1386;50.862;6.494;2023-07-20T04:33:17;16.80;99.90
2757;DHT22;1386;50.862;6.494;2023-07-20T04:35:49;16.90;99.90
2757;DHT22;1386;50.862;6.494;2023-07-20T04:38:16;16.90;99.90
2757;DHT22;1386;50.862;6.494;2023-07-20T04:40:46;16.90;99.90
2757;DHT22;1386;50.862;6.494;2023-07-20T04:43:19;16.90;99.90
2757;DHT22;1386;50.862;6.494;2023-07-20T04:45:48;16.90;99.90
2757;DHT22;1386;50.862;6.494;2023-07-20T04:48:19;16.90;99.90
2757;DHT22;1386;50.862;6.494;2023-07-20T04:50:58;16.90;99.90
2757;DHT22;1386;50.862;6.494;2023-07-20T04:53:25;16.90;99.90
2757;DHT22;1386;50.862;6.494;2023-07-20T04:55:53;17.00;99.90
2757;DHT22;1386;50.862;6.494;2023-07-20T04:58:21;17.00;99.90
2757;DHT22;1386;50.862;6.494;2023-07-20T05:00:48;16.90;99.90
2757;DHT22;1386;50.862;6.494;2023-07-20T05:03:15;16.90;99.90
2757;DHT22;1386;50.862;6.494;2023-07-20T05:05:42;16.90;99.90
2757;DHT22;1386;50.862;6.494;2023-07-20T05:08:09;16.80;99.90
2757;DHT22;1386;50.862;6.494;2023-07-20T05:10:35;16.80;99.90
2757;DHT22;1386;50.862;6.494;2023-07-20T05:13:08;16.90;99.90
2757;DHT22;1386;50.862;6.494;2023-07-20T05:15:34;16.90;99.90
2757;DHT22;1386;50.862;6.494;2023-07-20T05:18:01;16.90;99.90
2757;DHT22;1386;50.862;6.494;2023-07-20T05:20:28;17.00;99.90
2757;DHT22;1386;50.862;6.494;2023-07-20T05:22:57;17.00;99.90
2757;DHT22;1386;50.862;6.494;2023-07-20T05:25:24;17.00;99.90
2757;DHT22;1386;50.862;6.494;2023-07-20T05:27:51;17.00;99.90
2757;DHT22;1386;50.862;6.494;2023-07-20T05:30:19;17.20;99.90
2757;DHT22;1386;50.862;6.494;2023-07-20T05:32:50;17.40;99.90
2757;DHT22;1386;50.862;6.494;2023-07-20T05:52:51;17.60;99.90
2757;DHT22;1386;50.862;6.494;2023-07-20T05:55:54;17.70;99.90
2757;DHT22;1386;50.862;6.494;2023-07-20T05:58:29;17.70;99.90
2757;DHT22;1386;50.862;6.494;2023-07-20T06:01:04;17.70;99.90
2757;DHT22;1386;50.862;6.494;2023-07-20T06:03:39;17.70;99.90
2757;DHT22;1386;50.862;6.494;2023-07-20T06:06:06;17.70;99.90
2757;DHT22;1386;50.862;6.494;2023-07-20T06:08:40;17.80;99.90
2757;DHT22;1386;50.862;6.494;2023-07-20T06:11:07;17.80;99.90
2757;DHT22;1386;50.862;6.494;2023-07-20T06:13:34;17.90;99.90
2757;DHT22;1386;50.862;6.494;2023-07-20T06:16:01;17.90;99.90
2757;DHT22;1386;50.862;6.494;2023-07-20T06:18:28;18.00;99.90
2757;DHT22;1386;50.862;6.494;2023-07-20T06:20:58;18.10;99.90
2757;DHT22;1386;50.862;6.494;2023-07-20T06:23:28;18.20;99.90
2757;DHT22;1386;50.862;6.494;2023-07-20T06:25:56;18.30;99.90
2757;DHT22;1386;50.862;6.494;2023-07-20T06:28:43;18.30;99.90
2757;DHT22;1386;50.862;6.494;2023-07-20T06:31:10;18.30;99.90
2757;DHT22;1386;50.862;6.494;2023-07-20T06:33:42;18.50;99.90
2757;DHT22;1386;50.862;6.494;2023-07-20T06:36:09;18.50;99.90
2757;DHT22;1386;50.862;6.494;2023-07-20T06:38:36;18.50;99.90
2757;DHT22;1386;50.862;6.494;2023-07-20T06:41:06;18.50;99.90
2757;DHT22;1386;50.862;6.494;2023-07-20T06:43:40;18.50;99.90
2757;DHT22;1386;50.862;6.494;2023-07-20T06:46:06;18.50;99.90
2757;DHT22;1386;50.862;6.494;2023-07-20T06:48:42;18.40;99.90
2757;DHT22;1386;50.862;6.494;2023-07-20T06:51:10;18.40;99.90
2757;DHT22;1386;50.862;6.494;2023-07-20T06:53:37;18.40;99.90
2757;DHT22;1386;50.862;6.494;2023-07-20T06:56:05;18.40;99.90
2757;DHT22;1386;50.862;6.494;2023-07-20T06:58:32;18.40;99.90
2757;DHT22;1386;50.862;6.494;2023-07-20T07:01:05;18.40;99.90
2757;DHT22;1386;50.862;6.494;2023-07-20T07:03:33;18.40;99.90
2757;DHT22;1386;50.862;6.494;2023-07-20T07:06:00;18.40;99.90
2757;DHT22;1386;50.862;6.494;2023-07-20T07:08:27;18.50;99.90
2757;DHT22;1386;50.862;6.494;2023-07-20T07:10:54;18.50;99.90
2757;DHT22;1386;50.862;6.494;2023-07-20T07:13:22;18.50;99.90
2757;DHT22;1386;50.862;6.494;2023-07-20T07:15:48;18.50;99.90
2757;DHT22;1386;50.862;6.494;2023-07-20T07:18:15;18.60;99.90
2757;DHT22;1386;50.862;6.494;2023-07-20T07:20:50;18.70;99.90
2757;DHT22;1386;50.862;6.494;2023-07-20T07:23:17;18.80;99.90
2757;DHT22;1386;50.862;6.494;2023-07-20T07:25:44;18.90;99.90
2757;DHT22;1386;50.862;6.494;2023-07-20T07:28:11;18.90;99.90
2757;DHT22;1386;50.862;6.494;2023-07-20T07:30:40;19.10;99.90
2757;DHT22;1386;50.862;6.494;2023-07-20T07:33:06;19.20;99.90
2757;DHT22;1386;50.862;6.494;2023-07-20T07:35:34;19.30;99.90
2757;DHT22;1386;50.862;6.494;2023-07-20T07:38:00;19.40;99.90
2757;DHT22;1386;50.862;6.494;2023-07-20T07:40:30;19.50;99.90
2757;DHT22;1386;50.862;6.494;2023-07-20T07:42:57;19.70;99.90
2757;DHT22;1386;50.862;6.494;2023-07-20T07:45:24;19.80;99.90
2757;DHT22;1386;50.862;6.494;2023-07-20T07:47:52;20.00;99.90
2757;DHT22;1386;50.862;6.494;2023-07-20T07:50:19;20.00;99.90
2757;DHT22;1386;50.862;6.494;2023-07-20T07:52:46;20.10;99.90
2757;DHT22;1386;50.862;6.494;2023-07-20T07:55:14;20.10;99.90
2757;DHT22;1386;50.862;6.494;2023-07-20T07:57:43;20.00;99.90
2757;DHT22;1386;50.862;6.494;2023-07-20T08:00:13;20.00;99.90
2757;DHT22;1386;50.862;6.494;2023-07-20T08:02:41;20.10;99.90
2757;DHT22;1386;50.862;6.494;2023-07-20T08:05:14;20.10;99.90
2757;DHT22;1386;50.862;6.494;2023-07-20T08:07:41;20.10;99.90
2757;DHT22;1386;50.862;6.494;2023-07-20T08:10:08;20.00;99.90
2757;DHT22;1386;50.862;6.494;2023-07-20T08:12:35;20.10;99.90
2757;DHT22;1386;50.862;6.494;2023-07-20T08:15:03;20.00;99.90
2757;DHT22;1386;50.862;6.494;2023-07-20T08:17:30;20.00;99.90
2757;DHT22;1386;50.862;6.494;2023-07-20T08:19:56;20.10;99.90
2757;DHT22;1386;50.862;6.494;2023-07-20T08:22:24;20.30;99.90
2757;DHT22;1386;50.862;6.494;2023-07-20T08:24:51;20.50;99.90
2757;DHT22;1386;50.862;6.494;2023-07-20T08:27:18;20.60;99.90
2757;DHT22;1386;50.862;6.494;2023-07-20T08:29:45;20.90;99.90
2757;DHT22;1386;50.862;6.494;2023-07-20T08:32:12;20.90;99.90
2757;DHT22;1386;50.862;6.494;2023-07-20T08:34:41;20.80;99.90
2757;DHT22;1386;50.862;6.494;2023-07-20T08:37:11;20.70;99.90
2757;DHT22;1386;50.862;6.494;2023-07-20T08:39:39;20.60;99.90
2757;DHT22;1386;50.862;6.494;2023-07-20T08:42:12;20.60;99.90
2757;DHT22;1386;50.862;6.494;2023-07-20T08:44:42;20.80;99.90
2757;DHT22;1386;50.862;6.494;2023-07-20T08:47:10;20.90;99.90
2757;DHT22;1386;50.862;6.494;2023-07-20T08:49:41;21.10;99.90
2757;DHT22;1386;50.862;6.494;2023-07-20T08:52:08;21.40;99.90
2757;DHT22;1386;50.862;6.494;2023-07-20T08:54:35;21.70;99.90
2757;DHT22;1386;50.862;6.494;2023-07-20T08:57:05;21.90;99.90
2757;DHT22;1386;50.862;6.494;2023-07-20T08:59:36;21.90;99.90
2757;DHT22;1386;50.862;6.494;2023-07-20T09:02:05;21.80;99.90
2757;DHT22;1386;50.862;6.494;2023-07-20T09:04:32;21.80;99.90
2757;DHT22;1386;50.862;6.494;2023-07-20T09:07:06;21.80;99.90
2757;DHT22;1386;50.862;6.494;2023-07-20T09:09:33;22.00;99.90
2757;DHT22;1386;50.862;6.494;2023-07-20T09:12:14;22.20;99.90
2757;DHT22;1386;50.862;6.494;2023-07-20T09:14:43;22.10;99.90
2757;DHT22;1386;50.862;6.494;2023-07-20T09:17:13;21.90;99.90
2757;DHT22;1386;50.862;6.494;2023-07-20T09:19:45;21.90;99.90
2757;DHT22;1386;50.862;6.494;2023-07-20T09:22:12;22.00;99.90
2757;DHT22;1386;50.862;6.494;2023-07-20T09:24:39;22.30;99.90
2757;DHT22;1386;50.862;6.494;2023-07-20T09:27:09;22.50;99.90
2757;DHT22;1386;50.862;6.494;2023-07-20T09:29:47;22.70;99.90
2757;DHT22;1386;50.862;6.494;2023-07-20T09:32:27;22.90;99.90
2757;DHT22;1386;50.862;6.494;2023-07-20T09:34:54;23.00;99.90
2757;DHT22;1386;50.862;6.494;2023-07-20T09:37:30;23.10;99.90
2757;DHT22;1386;50.862;6.494;2023-07-20T09:39:59;23.00;99.90
2757;DHT22;1386;50.862;6.494;2023-07-20T09:42:31;22.90;99.90
2757;DHT22;1386;50.862;6.494;2023-07-20T09:44:59;22.90;99.90
2757;DHT22;1386;50.862;6.494;2023-07-20T09:47:26;23.00;99.90
2757;DHT22;1386;50.862;6.494;2023-07-20T09:50:00;22.90;99.90
2757;DHT22;1386;50.862;6.494;2023-07-20T09:52:27;22.90;99.90
2757;DHT22;1386;50.862;6.494;2023-07-20T09:54:59;23.00;99.90
2757;DHT22;1386;50.862;6.494;2023-07-20T09:57:30;22.90;99.90
2757;DHT22;1386;50.862;6.494;2023-07-20T10:00:05;22.90;99.90
2757;DHT22;1386;50.862;6.494;2023-07-20T10:02:42;22.90;99.90
2757;DHT22;1386;50.862;6.494;2023-07-20T10:05:20;23.00;99.90
2757;DHT22;1386;50.862;6.494;2023-07-20T10:07:48;23.30;99.90
2757;DHT22;1386;50.862;6.494;2023-07-20T10:10:35;23.20;99.90
2757;DHT22;1386;50.862;6.494;2023-07-20T10:13:13;23.10;99.90
2757;DHT22;1386;50.862;6.494;2023-07-20T10:15:50;23.10;99.90
2757;DHT22;1386;50.862;6.494;2023-07-20T10:18:21;23.30;99.90
2757;DHT22;1386;50.862;6.494;2023-07-20T10:20:56;23.40;99.90
2757;DHT22;1386;50.862;6.494;2023-07-20T10:23:26;23.60;99.90
2757;DHT22;1386;50.862;6.494;2023-07-20T10:26:01;23.60;99.90
2757;DHT22;1386;50.862;6.494;2023-07-20T10:28:28;23.50;99.90
2757;DHT22;1386;50.862;6.494;2023-07-20T10:30:56;23.40;99.90
2757;DHT22;1386;50.862;6.494;2023-07-20T10:33:24;23.30;99.90
2757;DHT22;1386;50.862;6.494;2023-07-20T10:35:51;23.30;99.90
2757;DHT22;1386;50.862;6.494;2023-07-20T10:38:38;23.20;99.90
2757;DHT22;1386;50.862;6.494;2023-07-20T10:41:16;23.20;99.90
2757;DHT22;1386;50.862;6.494;2023-07-20T10:43:43;23.10;99.90
2757;DHT22;1386;50.862;6.494;2023-07-20T10:46:43;23.30;99.90
2757;DHT22;1386;50.862;6.494;2023-07-20T10:49:26;23.50;99.90
2757;DHT22;1386;50.862;6.494;2023-07-20T10:51:57;23.60;99.90
2757;DHT22;1386;50.862;6.494;2023-07-20T10:54:35;23.90;99.90
2757;DHT22;1386;50.862;6.494;2023-07-20T10:57:29;24.10;99.90
2757;DHT22;1386;50.862;6.494;2023-07-20T11:00:11;24.10;99.20
2757;DHT22;1386;50.862;6.494;2023-07-20T11:02:45;23.90;98.80
2757;DHT22;1386;50.862;6.494;2023-07-20T11:05:37;23.90;99.30
2757;DHT22;1386;50.862;6.494;2023-07-20T11:08:07;23.90;99.30
2757;DHT22;1386;50.862;6.494;2023-07-20T11:10:39;23.80;99.70
2757;DHT22;1386;50.862;6.494;2023-07-20T11:13:22;23.90;99.30
2757;DHT22;1386;50.862;6.494;2023-07-20T11:16:03;23.70;97.90
2757;DHT22;1386;50.862;6.494;2023-07-20T11:18:35;23.70;98.90
2757;DHT22;1386;50.862;6.494;2023-07-20T11:21:07;23.80;99.30
2757;DHT22;1386;50.862;6.494;2023-07-20T11:23:40;24.10;99.30
2757;DHT22;1386;50.862;6.494;2023-07-20T11:26:07;24.30;98.50
2757;DHT22;1386;50.862;6.494;2023-07-20T11:28:34;24.40;97.00
2757;DHT22;1386;50.862;6.494;2023-07-20T11:31:01;24.60;97.30
2757;DHT22;1386;50.862;6.494;2023-07-20T11:33:28;24.70;96.70
2757;DHT22;1386;50.862;6.494;2023-07-20T11:35:59;24.50;96.00
2757;DHT22;1386;50.862;6.494;2023-07-20T11:38:26;24.70;95.90
2757;DHT22;1386;50.862;6.494;2023-07-20T11:40:54;24.90;95.80
2757;DHT22;1386;50.862;6.494;2023-07-20T11:43:20;25.10;95.10
2757;DHT22;1386;50.862;6.494;2023-07-20T11:45:48;25.20;94.80
2757;DHT22;1386;50.862;6.494;2023-07-20T11:48:15;25.10;93.80
2757;DHT22;1386;50.862;6.494;2023-07-20T11:50:42;25.10;94.10
2757;DHT22;1386;50.862;6.494;2023-07-20T11:53:11;25.30;94.00
2757;DHT22;1386;50.862;6.494;2023-07-20T11:55:38;25.30;93.40
2757;DHT22;1386;50.862;6.494;2023-07-20T11:58:07;25.40;93.70
2757;DHT22;1386;50.862;6.494;2023-07-20T12:00:37;25.40;93.20
2757;DHT22;1386;50.862;6.494;2023-07-20T12:03:06;25.20;92.20
2757;DHT22;1386;50.862;6.494;2023-07-20T12:05:38;25.10;92.20
2757;DHT22;1386;50.862;6.494;2023-07-20T12:08:05;25.00;92.80
2757;DHT22;1386;50.862;6.494;2023-07-20T12:10:33;25.10;92.90
2757;DHT22;1386;50.862;6.494;2023-07-20T12:13:01;25.10;92.80
2757;DHT22;1386;50.862;6.494;2023-07-20T12:15:29;25.10;92.70
2757;DHT22;1386;50.862;6.494;2023-07-20T12:17:58;25.00;92.70
2757;DHT22;1386;50.862;6.494;2023-07-20T12:20:27;24.90;92.40
2757;DHT22;1386;50.862;6.494;2023-07-20T12:22:57;24.80;92.50
2757;DHT22;1386;50.862;6.494;2023-07-20T12:25:34;24.80;92.70
2757;DHT22;1386;50.862;6.494;2023-07-20T12:28:01;24.70;92.80
2757;DHT22;1386;50.862;6.494;2023-07-20T12:30:29;24.60;92.40
2757;DHT22;1386;50.862;6.494;2023-07-20T12:32:56;24.60;92.60
2757;DHT22;1386;50.862;6.494;2023-07-20T12:35:23;24.50;92.80
2757;DHT22;1386;50.862;6.494;2023-07-20T12:37:49;24.50;92.00
2757;DHT22;1386;50.862;6.494;2023-07-20T12:40:17;24.70;92.40
2757;DHT22;1386;50.862;6.494;2023-07-20T12:42:45;24.70;91.90
2757;DHT22;1386;50.862;6.494;2023-07-20T12:45:12;24.60;92.20
2757;DHT22;1386;50.862;6.494;2023-07-20T12:47:39;24.60;92.30
2757;DHT22;1386;50.862;6.494;2023-07-20T12:50:07;24.40;92.10
2757;DHT22;1386;50.862;6.494;2023-07-20T12:52:36;24.40;92.60
2757;DHT22;1386;50.862;6.494;2023-07-20T12:55:04;24.50;93.10
2757;DHT22;1386;50.862;6.494;2023-07-20T12:57:32;24.70;92.50
2757;DHT22;1386;50.862;6.494;2023-07-20T13:00:00;24.80;92.60
2757;DHT22;1386;50.862;6.494;2023-07-20T13:02:29;24.70;92.00
2757;DHT22;1386;50.862;6.494;2023-07-20T13:04:56;24.70;91.90
2757;DHT22;1386;50.862;6.494;2023-07-20T13:07:38;24.90;91.70
2757;DHT22;1386;50.862;6.494;2023-07-20T13:10:15;25.20;92.60
2757;DHT22;1386;50.862;6.494;2023-07-20T13:12:45;25.30;92.40
2757;DHT22;1386;50.862;6.494;2023-07-20T13:15:44;25.30;91.30
2757;DHT22;1386;50.862;6.494;2023-07-20T13:18:12;25.20;91.80
2757;DHT22;1386;50.862;6.494;2023-07-20T13:20:42;25.10;91.90
2757;DHT22;1386;50.862;6.494;2023-07-20T13:23:11;25.10;91.50
2757;DHT22;1386;50.862;6.494;2023-07-20T13:25:38;25.10;91.80
2757;DHT22;1386;50.862;6.494;2023-07-20T13:28:08;25.10;91.80
2757;DHT22;1386;50.862;6.494;2023-07-20T13:30:34;24.90;91.50
2757;DHT22;1386;50.862;6.494;2023-07-20T13:33:03;24.90;91.60
2757;DHT22;1386;50.862;6.494;2023-07-20T13:35:29;24.80;91.00
2757;DHT22;1386;50.862;6.494;2023-07-20T13:38:18;24.70;91.10
2757;DHT22;1386;50.862;6.494;2023-07-20T13:40:51;24.70;91.20
2757;DHT22;1386;50.862;6.494;2023-07-20T13:43:18;24.60;91.50
2757;DHT22;1386;50.862;6.494;2023-07-20T13:45:45;24.90;91.90
2757;DHT22;1386;50.862;6.494;2023-07-20T13:48:14;25.20;91.60
2757;DHT22;1386;50.862;6.494;2023-07-20T13:50:49;25.50;91.40
2757;DHT22;1386;50.862;6.494;2023-07-20T13:53:19;25.70;90.30
2757;DHT22;1386;50.862;6.494;2023-07-20T13:55:52;25.60;89.60
2757;DHT22;1386;50.862;6.494;2023-07-20T13:58:19;25.50;88.10
2757;DHT22;1386;50.862;6.494;2023-07-20T14:00:46;25.50;87.90
2757;DHT22;1386;50.862;6.494;2023-07-20T14:03:15;25.50;89.10
2757;DHT22;1386;50.862;6.494;2023-07-20T14:05:42;25.60;89.40
2757;DHT22;1386;50.862;6.494;2023-07-20T14:08:09;25.70;87.40
2757;DHT22;1386;50.862;6.494;2023-07-20T14:10:36;25.80;86.20
2757;DHT22;1386;50.862;6.494;2023-07-20T14:13:05;25.90;86.40
2757;DHT22;1386;50.862;6.494;2023-07-20T14:15:34;26.00;85.90
2757;DHT22;1386;50.862;6.494;2023-07-20T14:18:01;25.80;84.80
2757;DHT22;1386;50.862;6.494;2023-07-20T14:20:32;25.60;84.80
2757;DHT22;1386;50.862;6.494;2023-07-20T14:22:59;25.60;82.60
2757;DHT22;1386;50.862;6.494;2023-07-20T14:25:26;25.70;83.60
2757;DHT22;1386;50.862;6.494;2023-07-20T14:27:53;25.50;83.30
2757;DHT22;1386;50.862;6.494;2023-07-20T14:30:21;25.50;84.30
2757;DHT22;1386;50.862;6.494;2023-07-20T14:32:56;25.40;82.70
2757;DHT22;1386;50.862;6.494;2023-07-20T14:35:34;25.50;83.10
2757;DHT22;1386;50.862;6.494;2023-07-20T14:38:02;25.50;82.50
2757;DHT22;1386;50.862;6.494;2023-07-20T14:40:30;25.50;81.60
2757;DHT22;1386;50.862;6.494;2023-07-20T14:42:57;25.50;81.80
2757;DHT22;1386;50.862;6.494;2023-07-20T14:45:29;25.40;81.00
2757;DHT22;1386;50.862;6.494;2023-07-20T14:47:59;25.30;80.60
2757;DHT22;1386;50.862;6.494;2023-07-20T14:50:25;25.20;80.00
2757;DHT22;1386;50.862;6.494;2023-07-20T14:52:54;25.20;81.10
2757;DHT22;1386;50.862;6.494;2023-07-20T14:55:21;25.20;80.60
2757;DHT22;1386;50.862;6.494;2023-07-20T14:57:48;25.10;80.50
2757;DHT22;1386;50.862;6.494;2023-07-20T15:00:15;25.10;81.20
2757;DHT22;1386;50.862;6.494;2023-07-20T15:02:42;25.10;80.00
2757;DHT22;1386;50.862;6.494;2023-07-20T15:05:10;25.30;80.30
2757;DHT22;1386;50.862;6.494;2023-07-20T15:07:37;25.30;80.30
2757;DHT22;1386;50.862;6.494;2023-07-20T15:10:32;25.40;78.50
2757;DHT22;1386;50.862;6.494;2023-07-20T15:13:10;25.40;78.00
2757;DHT22;1386;50.862;6.494;2023-07-20T15:15:36;25.40;79.50
2757;DHT22;1386;50.862;6.494;2023-07-20T15:18:03;25.40;77.90
2757;DHT22;1386;50.862;6.494;2023-07-20T15:20:30;25.40;78.50
2757;DHT22;1386;50.862;6.494;2023-07-20T15:22:59;25.50;78.00
2757;DHT22;1386;50.862;6.494;2023-07-20T15:25:34;25.60;77.00
2757;DHT22;1386;50.862;6.494;2023-07-20T15:28:22;25.30;73.40
2757;DHT22;1386;50.862;6.494;2023-07-20T15:30:59;25.50;76.10
2757;DHT22;1386;50.862;6.494;2023-07-20T15:33:27;25.50;75.90
2757;DHT22;1386;50.862;6.494;2023-07-20T15:35:54;25.70;76.20
2757;DHT22;1386;50.862;6.494;2023-07-20T15:38:20;25.70;75.60
2757;DHT22;1386;50.862;6.494;2023-07-20T15:40:52;25.50;76.50
2757;DHT22;1386;50.862;6.494;2023-07-20T15:43:19;25.40;76.90
2757;DHT22;1386;50.862;6.494;2023-07-20T15:48:23;25.40;78.60
2757;DHT22;1386;50.862;6.494;2023-07-20T15:51:00;25.50;77.30
2757;DHT22;1386;50.862;6.494;2023-07-20T15:53:28;25.50;76.30
2757;DHT22;1386;50.862;6.494;2023-07-20T15:56:00;25.60;75.70
2757;DHT22;1386;50.862;6.494;2023-07-20T15:58:44;25.60;76.70
2757;DHT22;1386;50.862;6.494;2023-07-20T16:01:16;25.70;76.00
2757;DHT22;1386;50.862;6.494;2023-07-20T16:04:43;25.70;75.50
2757;DHT22;1386;50.862;6.494;2023-07-20T16:16:40;25.70;76.10
2757;DHT22;1386;50.862;6.494;2023-07-20T16:22:25;25.70;77.00
2757;DHT22;1386;50.862;6.494;2023-07-20T16:24:53;25.70;77.80
2757;DHT22;1386;50.862;6.494;2023-07-20T16:27:19;25.70;77.90
2757;DHT22;1386;50.862;6.494;2023-07-20T16:29:49;25.60;78.10
2757;DHT22;1386;50.862;6.494;2023-07-20T16:32:18;25.70;78.10
2757;DHT22;1386;50.862;6.494;2023-07-20T16:34:45;25.60;77.90
2757;DHT22;1386;50.862;6.494;2023-07-20T16:37:12;25.50;78.00
2757;DHT22;1386;50.862;6.494;2023-07-20T16:39:39;25.40;78.20
2757;DHT22;1386;50.862;6.494;2023-07-20T16:42:23;25.40;78.50
2757;DHT22;1386;50.862;6.494;2023-07-20T16:44:51;25.20;77.70
2757;DHT22;1386;50.862;6.494;2023-07-20T16:47:22;25.30;78.50
2757;DHT22;1386;50.862;6.494;2023-07-20T16:49:50;25.20;77.60
2757;DHT22;1386;50.862;6.494;2023-07-20T16:52:17;25.10;78.30
2757;DHT22;1386;50.862;6.494;2023-07-20T16:54:45;25.10;78.70
2757;DHT22;1386;50.862;6.494;2023-07-20T16:57:13;25.10;78.60